sensor_id;sensor_type;location;lat;lon;timestamp;P1;durP1;ratioP1;P2;durP2;ratioP2
59788;SDS011;47353;51.614;5.530;2024-03-25T00:00:09;34.75;;;9.05;;
59788;SDS011;47353;51.614;5.530;2024-03-25T00:02:36;28.67;;;7.50;;
59788;SDS011;47353;51.614;5.530;2024-03-25T00:05:03;25.63;;;7.03;;
59788;SDS011;47353;51.614;5.530;2024-03-25T00:07:28;29.88;;;7.88;;
59788;SDS011;47353;51.614;5.530;2024-03-25T00:09:54;26.13;;;7.22;;
59788;SDS011;47353;51.614;5.530;2024-03-25T00:12:20;20.42;;;5.30;;
59788;SDS011;47353;51.614;5.530;2024-03-25T00:14:45;23.60;;;5.22;;
59788;SDS011;47353;51.614;5.530;2024-03-25T00:17:10;24.48;;;5.40;;
59788;SDS011;47353;51.614;5.530;2024-03-25T00:19:36;23.98;;;5.63;;
59788;SDS011;47353;51.614;5.530;2024-03-25T00:22:02;20.83;;;4.70;;
59788;SDS011;47353;51.614;5.530;2024-03-25T00:24:28;20.13;;;5.18;;
59788;SDS011;47353;51.614;5.530;2024-03-25T00:26:53;17.02;;;3.97;;
59788;SDS011;47353;51.614;5.530;2024-03-25T00:29:19;28.63;;;5.28;;
59788;SDS011;47353;51.614;5.530;2024-03-25T00:31:44;21.85;;;5.22;;
59788;SDS011;47353;51.614;5.530;2024-03-25T00:34:10;20.73;;;4.90;;
59788;SDS011;47353;51.614;5.530;2024-03-25T00:36:35;24.15;;;5.30;;
59788;SDS011;47353;51.614;5.530;2024-03-25T00:39:01;24.02;;;4.80;;
59788;SDS011;47353;51.614;5.530;2024-03-25T00:41:26;25.25;;;4.50;;
59788;SDS011;47353;51.614;5.530;2024-03-25T00:43:52;26.83;;;5.43;;
59788;SDS011;47353;51.614;5.530;2024-03-25T00:46:17;28.50;;;6.38;;
59788;SDS011;47353;51.614;5.530;2024-03-25T00:48:42;19.15;;;4.88;;
59788;SDS011;47353;51.614;5.530;2024-03-25T00:51:08;20.92;;;4.30;;
59788;SDS011;47353;51.614;5.530;2024-03-25T00:53:33;19.95;;;4.32;;
59788;SDS011;47353;51.614;5.530;2024-03-25T00:55:59;21.20;;;4.38;;
59788;SDS011;47353;51.614;5.530;2024-03-25T00:58:24;19.25;;;4.10;;
59788;SDS011;47353;51.614;5.530;2024-03-25T01:00:50;22.08;;;4.90;;
59788;SDS011;47353;51.614;5.530;2024-03-25T01:03:15;27.30;;;5.65;;
59788;SDS011;47353;51.614;5.530;2024-03-25T01:05:41;22.45;;;5.00;;
59788;SDS011;47353;51.614;5.530;2024-03-25T01:08:07;18.73;;;4.15;;
59788;SDS011;47353;51.614;5.530;2024-03-25T01:10:35;20.73;;;4.28;;
59788;SDS011;47353;51.614;5.530;2024-03-25T01:13:01;21.23;;;4.40;;
59788;SDS011;47353;51.614;5.530;2024-03-25T01:15:27;22.05;;;4.75;;
59788;SDS011;47353;51.614;5.530;2024-03-25T01:17:52;22.05;;;4.22;;
59788;SDS011;47353;51.614;5.530;2024-03-25T01:20:17;20.98;;;4.15;;
59788;SDS011;47353;51.614;5.530;2024-03-25T01:22:43;25.95;;;4.35;;
59788;SDS011;47353;51.614;5.530;2024-03-25T01:25:08;19.20;;;4.00;;
59788;SDS011;47353;51.614;5.530;2024-03-25T01:27:34;23.42;;;4.43;;
59788;SDS011;47353;51.614;5.530;2024-03-25T01:29:59;20.75;;;4.35;;
59788;SDS011;47353;51.614;5.530;2024-03-25T01:32:25;20.05;;;4.35;;
59788;SDS011;47353;51.614;5.530;2024-03-25T01:34:51;24.70;;;4.53;;
59788;SDS011;47353;51.614;5.530;2024-03-25T01:37:16;24.02;;;5.00;;
59788;SDS011;47353;51.614;5.530;2024-03-25T01:39:41;20.10;;;3.72;;
59788;SDS011;47353;51.614;5.530;2024-03-25T01:42:07;20.63;;;4.45;;
59788;SDS011;47353;51.614;5.530;2024-03-25T01:44:32;21.55;;;4.50;;
59788;SDS011;47353;51.614;5.530;2024-03-25T01:46:57;18.92;;;4.53;;
59788;SDS011;47353;51.614;5.530;2024-03-25T01:49:23;23.42;;;4.65;;
59788;SDS011;47353;51.614;5.530;2024-03-25T01:51:49;17.88;;;3.83;;
59788;SDS011;47353;51.614;5.530;2024-03-25T01:54:14;23.80;;;4.20;;
59788;SDS011;47353;51.614;5.530;2024-03-25T01:56:41;19.20;;;4.10;;
59788;SDS011;47353;51.614;5.530;2024-03-25T01:59:09;25.80;;;5.40;;
59788;SDS011;47353;51.614;5.530;2024-03-25T02:01:35;28.17;;;6.63;;
59788;SDS011;47353;51.614;5.530;2024-03-25T02:04:01;24.98;;;7.25;;
59788;SDS011;47353;51.614;5.530;2024-03-25T02:06:27;24.95;;;6.43;;
59788;SDS011;47353;51.614;5.530;2024-03-25T02:08:54;32.25;;;6.63;;
59788;SDS011;47353;51.614;5.530;2024-03-25T02:11:21;26.75;;;5.60;;
59788;SDS011;47353;51.614;5.530;2024-03-25T02:13:48;24.05;;;5.28;;
59788;SDS011;47353;51.614;5.530;2024-03-25T02:16:14;21.27;;;5.35;;
59788;SDS011;47353;51.614;5.530;2024-03-25T02:18:40;21.15;;;5.78;;
59788;SDS011;47353;51.614;5.530;2024-03-25T02:21:05;17.80;;;5.13;;
59788;SDS011;47353;51.614;5.530;2024-03-25T02:23:31;26.42;;;5.35;;
59788;SDS011;47353;51.614;5.530;2024-03-25T02:25:59;22.42;;;4.80;;
59788;SDS011;47353;51.614;5.530;2024-03-25T02:28:24;28.48;;;5.80;;
59788;SDS011;47353;51.614;5.530;2024-03-25T02:30:50;21.70;;;5.07;;
59788;SDS011;47353;51.614;5.530;2024-03-25T02:33:15;23.08;;;5.45;;
59788;SDS011;47353;51.614;5.530;2024-03-25T02:35:41;28.70;;;5.03;;
59788;SDS011;47353;51.614;5.530;2024-03-25T02:38:07;22.15;;;5.00;;
59788;SDS011;47353;51.614;5.530;2024-03-25T02:40:34;26.00;;;5.25;;
59788;SDS011;47353;51.614;5.530;2024-03-25T02:43:00;20.45;;;4.55;;
59788;SDS011;47353;51.614;5.530;2024-03-25T02:45:25;19.13;;;4.45;;
59788;SDS011;47353;51.614;5.530;2024-03-25T02:47:51;23.23;;;5.00;;
59788;SDS011;47353;51.614;5.530;2024-03-25T02:50:16;19.13;;;5.30;;
59788;SDS011;47353;51.614;5.530;2024-03-25T02:52:42;18.85;;;6.00;;
59788;SDS011;47353;51.614;5.530;2024-03-25T02:55:07;23.38;;;5.25;;
59788;SDS011;47353;51.614;5.530;2024-03-25T02:57:33;17.13;;;4.55;;
59788;SDS011;47353;51.614;5.530;2024-03-25T02:59:58;29.85;;;5.53;;
59788;SDS011;47353;51.614;5.530;2024-03-25T03:02:24;22.58;;;4.80;;
59788;SDS011;47353;51.614;5.530;2024-03-25T03:04:49;21.83;;;4.20;;
59788;SDS011;47353;51.614;5.530;2024-03-25T03:07:15;19.88;;;4.30;;
59788;SDS011;47353;51.614;5.530;2024-03-25T03:09:40;22.35;;;4.35;;
59788;SDS011;47353;51.614;5.530;2024-03-25T03:12:05;26.70;;;5.68;;
59788;SDS011;47353;51.614;5.530;2024-03-25T03:14:31;24.15;;;5.90;;
59788;SDS011;47353;51.614;5.530;2024-03-25T03:16:56;31.77;;;5.85;;
59788;SDS011;47353;51.614;5.530;2024-03-25T03:21:55;19.42;;;5.35;;
59788;SDS011;47353;51.614;5.530;2024-03-25T03:24:20;24.50;;;5.40;;
59788;SDS011;47353;51.614;5.530;2024-03-25T03:26:45;19.85;;;5.10;;
59788;SDS011;47353;51.614;5.530;2024-03-25T03:29:11;21.35;;;5.00;;
59788;SDS011;47353;51.614;5.530;2024-03-25T03:31:36;21.17;;;5.70;;
59788;SDS011;47353;51.614;5.530;2024-03-25T03:34:02;22.08;;;5.30;;
59788;SDS011;47353;51.614;5.530;2024-03-25T03:36:28;25.17;;;5.32;;
59788;SDS011;47353;51.614;5.530;2024-03-25T03:38:53;27.88;;;5.70;;
59788;SDS011;47353;51.614;5.530;2024-03-25T03:41:19;24.35;;;6.35;;
59788;SDS011;47353;51.614;5.530;2024-03-25T03:43:44;23.73;;;5.57;;
59788;SDS011;47353;51.614;5.530;2024-03-25T03:46:10;22.85;;;5.18;;
59788;SDS011;47353;51.614;5.530;2024-03-25T03:48:36;16.80;;;4.53;;
59788;SDS011;47353;51.614;5.530;2024-03-25T03:51:03;21.95;;;4.97;;
59788;SDS011;47353;51.614;5.530;2024-03-25T03:53:35;21.17;;;5.28;;
59788;SDS011;47353;51.614;5.530;2024-03-25T03:56:01;14.80;;;4.40;;
59788;SDS011;47353;51.614;5.530;2024-03-25T03:58:29;19.70;;;5.05;;
59788;SDS011;47353;51.614;5.530;2024-03-25T04:00:54;13.90;;;4.30;;
59788;SDS011;47353;51.614;5.530;2024-03-25T04:03:20;11.40;;;4.13;;
59788;SDS011;47353;51.614;5.530;2024-03-25T04:05:46;9.30;;;3.50;;
59788;SDS011;47353;51.614;5.530;2024-03-25T04:08:12;18.67;;;4.45;;
59788;SDS011;47353;51.614;5.530;2024-03-25T04:10:37;10.45;;;3.35;;
59788;SDS011;47353;51.614;5.530;2024-03-25T04:13:03;9.75;;;3.55;;
59788;SDS011;47353;51.614;5.530;2024-03-25T04:15:32;9.60;;;3.58;;
59788;SDS011;47353;51.614;5.530;2024-03-25T04:17:58;9.30;;;3.13;;
59788;SDS011;47353;51.614;5.530;2024-03-25T04:20:23;11.15;;;3.85;;
59788;SDS011;47353;51.614;5.530;2024-03-25T04:22:49;17.58;;;4.60;;
59788;SDS011;47353;51.614;5.530;2024-03-25T04:25:14;14.82;;;4.15;;
59788;SDS011;47353;51.614;5.530;2024-03-25T04:27:40;16.48;;;4.63;;
59788;SDS011;47353;51.614;5.530;2024-03-25T04:30:07;11.70;;;4.32;;
59788;SDS011;47353;51.614;5.530;2024-03-25T04:32:34;14.57;;;5.22;;
59788;SDS011;47353;51.614;5.530;2024-03-25T04:35:00;19.42;;;5.20;;
59788;SDS011;47353;51.614;5.530;2024-03-25T04:37:26;22.10;;;6.72;;
59788;SDS011;47353;51.614;5.530;2024-03-25T04:39:53;16.38;;;6.47;;
59788;SDS011;47353;51.614;5.530;2024-03-25T04:42:18;25.10;;;8.05;;
59788;SDS011;47353;51.614;5.530;2024-03-25T04:44:44;19.42;;;8.40;;
59788;SDS011;47353;51.614;5.530;2024-03-25T04:47:09;26.40;;;8.95;;
59788;SDS011;47353;51.614;5.530;2024-03-25T04:49:34;30.15;;;9.95;;
59788;SDS011;47353;51.614;5.530;2024-03-25T04:52:00;27.65;;;10.20;;
59788;SDS011;47353;51.614;5.530;2024-03-25T04:54:25;24.40;;;8.98;;
59788;SDS011;47353;51.614;5.530;2024-03-25T04:56:51;26.27;;;10.38;;
59788;SDS011;47353;51.614;5.530;2024-03-25T04:59:16;23.38;;;9.02;;
59788;SDS011;47353;51.614;5.530;2024-03-25T05:01:41;18.33;;;9.02;;
59788;SDS011;47353;51.614;5.530;2024-03-25T05:04:07;20.75;;;9.93;;
59788;SDS011;47353;51.614;5.530;2024-03-25T05:06:34;25.48;;;10.07;;
59788;SDS011;47353;51.614;5.530;2024-03-25T05:09:00;26.70;;;10.35;;
59788;SDS011;47353;51.614;5.530;2024-03-25T05:11:25;26.83;;;11.60;;
59788;SDS011;47353;51.614;5.530;2024-03-25T05:13:50;30.08;;;13.35;;
59788;SDS011;47353;51.614;5.530;2024-03-25T05:16:16;35.83;;;15.40;;
59788;SDS011;47353;51.614;5.530;2024-03-25T05:18:41;24.48;;;12.45;;
59788;SDS011;47353;51.614;5.530;2024-03-25T05:21:06;27.23;;;12.32;;
59788;SDS011;47353;51.614;5.530;2024-03-25T05:23:32;30.40;;;13.48;;
59788;SDS011;47353;51.614;5.530;2024-03-25T05:25:57;28.30;;;14.35;;
59788;SDS011;47353;51.614;5.530;2024-03-25T05:28:23;22.13;;;13.00;;
59788;SDS011;47353;51.614;5.530;2024-03-25T05:30:48;25.40;;;12.48;;
59788;SDS011;47353;51.614;5.530;2024-03-25T05:33:15;22.98;;;11.60;;
59788;SDS011;47353;51.614;5.530;2024-03-25T05:35:40;22.20;;;12.10;;
59788;SDS011;47353;51.614;5.530;2024-03-25T05:38:06;41.30;;;16.80;;
59788;SDS011;47353;51.614;5.530;2024-03-25T05:40:32;25.15;;;13.18;;
59788;SDS011;47353;51.614;5.530;2024-03-25T05:42:57;28.40;;;13.98;;
59788;SDS011;47353;51.614;5.530;2024-03-25T05:45:23;20.85;;;12.98;;
59788;SDS011;47353;51.614;5.530;2024-03-25T05:47:50;25.27;;;13.80;;
59788;SDS011;47353;51.614;5.530;2024-03-25T05:50:15;25.35;;;13.23;;
59788;SDS011;47353;51.614;5.530;2024-03-25T05:52:41;22.45;;;11.88;;
59788;SDS011;47353;51.614;5.530;2024-03-25T05:55:07;18.70;;;10.80;;
59788;SDS011;47353;51.614;5.530;2024-03-25T05:57:32;20.60;;;12.00;;
59788;SDS011;47353;51.614;5.530;2024-03-25T05:59:58;20.85;;;12.13;;
59788;SDS011;47353;51.614;5.530;2024-03-25T06:02:23;19.02;;;10.77;;
59788;SDS011;47353;51.614;5.530;2024-03-25T06:04:49;26.95;;;13.88;;
59788;SDS011;47353;51.614;5.530;2024-03-25T06:07:14;24.20;;;12.40;;
59788;SDS011;47353;51.614;5.530;2024-03-25T06:09:40;22.02;;;12.80;;
59788;SDS011;47353;51.614;5.530;2024-03-25T06:12:05;25.23;;;13.98;;
59788;SDS011;47353;51.614;5.530;2024-03-25T06:14:32;29.40;;;15.18;;
59788;SDS011;47353;51.614;5.530;2024-03-25T06:16:57;28.92;;;15.68;;
59788;SDS011;47353;51.614;5.530;2024-03-25T06:19:22;26.80;;;15.13;;
59788;SDS011;47353;51.614;5.530;2024-03-25T06:21:48;27.85;;;15.82;;
59788;SDS011;47353;51.614;5.530;2024-03-25T06:24:13;25.48;;;15.43;;
59788;SDS011;47353;51.614;5.530;2024-03-25T06:26:39;26.05;;;14.65;;
59788;SDS011;47353;51.614;5.530;2024-03-25T06:29:04;27.15;;;15.23;;
59788;SDS011;47353;51.614;5.530;2024-03-25T06:31:30;28.95;;;15.93;;
59788;SDS011;47353;51.614;5.530;2024-03-25T06:34:13;24.17;;;15.10;;
59788;SDS011;47353;51.614;5.530;2024-03-25T06:36:39;28.52;;;16.50;;
59788;SDS011;47353;51.614;5.530;2024-03-25T06:39:05;24.70;;;16.00;;
59788;SDS011;47353;51.614;5.530;2024-03-25T06:41:31;26.00;;;14.98;;
59788;SDS011;47353;51.614;5.530;2024-03-25T06:43:56;26.60;;;15.23;;
59788;SDS011;47353;51.614;5.530;2024-03-25T06:46:22;24.85;;;15.00;;
59788;SDS011;47353;51.614;5.530;2024-03-25T06:48:47;24.65;;;15.15;;
59788;SDS011;47353;51.614;5.530;2024-03-25T06:51:13;27.27;;;15.23;;
59788;SDS011;47353;51.614;5.530;2024-03-25T06:53:38;26.00;;;14.40;;
59788;SDS011;47353;51.614;5.530;2024-03-25T06:56:04;23.33;;;13.95;;
59788;SDS011;47353;51.614;5.530;2024-03-25T06:58:29;21.70;;;13.60;;
59788;SDS011;47353;51.614;5.530;2024-03-25T07:00:55;19.83;;;13.32;;
59788;SDS011;47353;51.614;5.530;2024-03-25T07:03:22;23.98;;;13.38;;
59788;SDS011;47353;51.614;5.530;2024-03-25T07:05:49;24.45;;;13.40;;
59788;SDS011;47353;51.614;5.530;2024-03-25T07:08:17;21.55;;;11.98;;
59788;SDS011;47353;51.614;5.530;2024-03-25T07:10:44;24.13;;;12.27;;
59788;SDS011;47353;51.614;5.530;2024-03-25T07:13:10;21.23;;;12.02;;
59788;SDS011;47353;51.614;5.530;2024-03-25T07:15:36;21.02;;;12.13;;
59788;SDS011;47353;51.614;5.530;2024-03-25T07:18:02;18.02;;;11.48;;
59788;SDS011;47353;51.614;5.530;2024-03-25T07:20:28;18.00;;;10.98;;
59788;SDS011;47353;51.614;5.530;2024-03-25T07:22:54;18.52;;;10.70;;
59788;SDS011;47353;51.614;5.530;2024-03-25T07:25:20;17.55;;;10.55;;
59788;SDS011;47353;51.614;5.530;2024-03-25T07:27:46;16.38;;;9.93;;
59788;SDS011;47353;51.614;5.530;2024-03-25T07:30:12;15.85;;;10.70;;
59788;SDS011;47353;51.614;5.530;2024-03-25T07:32:37;20.55;;;10.77;;
59788;SDS011;47353;51.614;5.530;2024-03-25T07:35:03;18.27;;;9.75;;
59788;SDS011;47353;51.614;5.530;2024-03-25T07:37:29;17.65;;;10.15;;
59788;SDS011;47353;51.614;5.530;2024-03-25T07:39:55;16.83;;;9.88;;
59788;SDS011;47353;51.614;5.530;2024-03-25T07:42:21;14.95;;;9.60;;
59788;SDS011;47353;51.614;5.530;2024-03-25T07:44:46;17.75;;;10.52;;
59788;SDS011;47353;51.614;5.530;2024-03-25T07:47:12;15.90;;;8.85;;
59788;SDS011;47353;51.614;5.530;2024-03-25T07:49:37;14.65;;;9.18;;
59788;SDS011;47353;51.614;5.530;2024-03-25T07:52:04;14.00;;;9.02;;
59788;SDS011;47353;51.614;5.530;2024-03-25T07:54:30;12.90;;;8.90;;
59788;SDS011;47353;51.614;5.530;2024-03-25T07:56:56;13.43;;;8.80;;
59788;SDS011;47353;51.614;5.530;2024-03-25T07:59:21;15.15;;;8.43;;
59788;SDS011;47353;51.614;5.530;2024-03-25T08:01:47;16.50;;;8.68;;
59788;SDS011;47353;51.614;5.530;2024-03-25T08:04:12;11.23;;;7.85;;
59788;SDS011;47353;51.614;5.530;2024-03-25T08:06:37;11.68;;;8.10;;
59788;SDS011;47353;51.614;5.530;2024-03-25T08:09:03;16.02;;;8.65;;
59788;SDS011;47353;51.614;5.530;2024-03-25T08:11:32;12.88;;;8.35;;
59788;SDS011;47353;51.614;5.530;2024-03-25T08:13:58;13.60;;;8.60;;
59788;SDS011;47353;51.614;5.530;2024-03-25T08:16:24;15.93;;;8.75;;
59788;SDS011;47353;51.614;5.530;2024-03-25T08:18:49;15.05;;;8.93;;
59788;SDS011;47353;51.614;5.530;2024-03-25T08:21:15;13.93;;;8.75;;
59788;SDS011;47353;51.614;5.530;2024-03-25T08:23:41;15.43;;;8.82;;
59788;SDS011;47353;51.614;5.530;2024-03-25T08:26:06;16.38;;;8.85;;
59788;SDS011;47353;51.614;5.530;2024-03-25T08:28:33;17.05;;;10.07;;
59788;SDS011;47353;51.614;5.530;2024-03-25T08:30:59;16.75;;;10.02;;
59788;SDS011;47353;51.614;5.530;2024-03-25T08:33:24;18.38;;;10.10;;
59788;SDS011;47353;51.614;5.530;2024-03-25T08:35:49;15.95;;;9.93;;
59788;SDS011;47353;51.614;5.530;2024-03-25T08:38:15;17.85;;;11.02;;
59788;SDS011;47353;51.614;5.530;2024-03-25T08:40:41;15.95;;;10.38;;
59788;SDS011;47353;51.614;5.530;2024-03-25T08:43:06;20.10;;;11.40;;
59788;SDS011;47353;51.614;5.530;2024-03-25T08:45:32;20.17;;;11.90;;
59788;SDS011;47353;51.614;5.530;2024-03-25T08:47:57;18.90;;;11.30;;
59788;SDS011;47353;51.614;5.530;2024-03-25T08:50:23;19.02;;;11.07;;
59788;SDS011;47353;51.614;5.530;2024-03-25T08:52:48;17.67;;;11.95;;
59788;SDS011;47353;51.614;5.530;2024-03-25T08:55:14;18.73;;;10.88;;
59788;SDS011;47353;51.614;5.530;2024-03-25T08:57:39;17.52;;;10.30;;
59788;SDS011;47353;51.614;5.530;2024-03-25T09:00:05;18.50;;;11.43;;
59788;SDS011;47353;51.614;5.530;2024-03-25T09:02:35;17.52;;;11.13;;
59788;SDS011;47353;51.614;5.530;2024-03-25T09:05:03;21.13;;;12.00;;
59788;SDS011;47353;51.614;5.530;2024-03-25T09:07:33;19.48;;;11.75;;
59788;SDS011;47353;51.614;5.530;2024-03-25T09:09:58;18.20;;;11.85;;
59788;SDS011;47353;51.614;5.530;2024-03-25T09:12:42;22.70;;;12.13;;
59788;SDS011;47353;51.614;5.530;2024-03-25T09:15:09;19.90;;;11.65;;
59788;SDS011;47353;51.614;5.530;2024-03-25T09:17:38;18.88;;;11.48;;
59788;SDS011;47353;51.614;5.530;2024-03-25T09:20:04;17.65;;;11.32;;
59788;SDS011;47353;51.614;5.530;2024-03-25T09:22:33;18.52;;;11.30;;
59788;SDS011;47353;51.614;5.530;2024-03-25T09:24:59;20.20;;;10.68;;
59788;SDS011;47353;51.614;5.530;2024-03-25T09:27:24;19.83;;;10.77;;
59788;SDS011;47353;51.614;5.530;2024-03-25T09:29:49;21.13;;;11.25;;
59788;SDS011;47353;51.614;5.530;2024-03-25T09:32:15;16.95;;;10.57;;
59788;SDS011;47353;51.614;5.530;2024-03-25T09:34:40;16.40;;;10.57;;
59788;SDS011;47353;51.614;5.530;2024-03-25T09:37:05;19.63;;;11.23;;
59788;SDS011;47353;51.614;5.530;2024-03-25T09:39:31;17.98;;;10.20;;
59788;SDS011;47353;51.614;5.530;2024-03-25T09:41:56;14.75;;;9.27;;
59788;SDS011;47353;51.614;5.530;2024-03-25T09:44:26;14.45;;;9.20;;
59788;SDS011;47353;51.614;5.530;2024-03-25T09:46:54;18.80;;;9.60;;
59788;SDS011;47353;51.614;5.530;2024-03-25T09:49:19;16.13;;;9.68;;
59788;SDS011;47353;51.614;5.530;2024-03-25T09:51:45;16.60;;;9.65;;
59788;SDS011;47353;51.614;5.530;2024-03-25T09:54:11;16.15;;;9.52;;
59788;SDS011;47353;51.614;5.530;2024-03-25T09:56:36;16.48;;;10.02;;
59788;SDS011;47353;51.614;5.530;2024-03-25T09:59:04;17.23;;;9.90;;
59788;SDS011;47353;51.614;5.530;2024-03-25T10:01:30;15.73;;;9.73;;
59788;SDS011;47353;51.614;5.530;2024-03-25T10:03:55;19.35;;;9.90;;
59788;SDS011;47353;51.614;5.530;2024-03-25T10:06:21;16.10;;;10.23;;
59788;SDS011;47353;51.614;5.530;2024-03-25T10:08:46;17.30;;;9.57;;
59788;SDS011;47353;51.614;5.530;2024-03-25T10:11:11;13.18;;;8.45;;
59788;SDS011;47353;51.614;5.530;2024-03-25T10:13:40;16.85;;;8.70;;
59788;SDS011;47353;51.614;5.530;2024-03-25T10:16:06;13.40;;;8.25;;
59788;SDS011;47353;51.614;5.530;2024-03-25T10:18:32;12.70;;;7.30;;
59788;SDS011;47353;51.614;5.530;2024-03-25T10:20:58;14.32;;;8.18;;
59788;SDS011;47353;51.614;5.530;2024-03-25T10:23:24;16.58;;;8.85;;
59788;SDS011;47353;51.614;5.530;2024-03-25T10:25:52;13.13;;;6.65;;
59788;SDS011;47353;51.614;5.530;2024-03-25T10:28:18;10.23;;;5.20;;
59788;SDS011;47353;51.614;5.530;2024-03-25T10:30:44;7.72;;;4.53;;
59788;SDS011;47353;51.614;5.530;2024-03-25T10:33:09;9.52;;;5.72;;
59788;SDS011;47353;51.614;5.530;2024-03-25T10:35:35;9.10;;;4.97;;
59788;SDS011;47353;51.614;5.530;2024-03-25T10:38:09;9.13;;;5.57;;
59788;SDS011;47353;51.614;5.530;2024-03-25T10:40:36;10.52;;;5.60;;
59788;SDS011;47353;51.614;5.530;2024-03-25T10:43:03;10.55;;;6.40;;
59788;SDS011;47353;51.614;5.530;2024-03-25T10:45:40;11.70;;;6.45;;
59788;SDS011;47353;51.614;5.530;2024-03-25T10:50:33;10.75;;;6.45;;
59788;SDS011;47353;51.614;5.530;2024-03-25T10:53:00;10.75;;;5.65;;
59788;SDS011;47353;51.614;5.530;2024-03-25T10:55:27;8.57;;;4.60;;
59788;SDS011;47353;51.614;5.530;2024-03-25T10:57:54;5.75;;;3.42;;
59788;SDS011;47353;51.614;5.530;2024-03-25T11:00:21;7.00;;;4.20;;
59788;SDS011;47353;51.614;5.530;2024-03-25T11:02:47;5.55;;;3.10;;
59788;SDS011;47353;51.614;5.530;2024-03-25T11:05:13;4.28;;;2.83;;
59788;SDS011;47353;51.614;5.530;2024-03-25T11:07:40;6.32;;;3.35;;
59788;SDS011;47353;51.614;5.530;2024-03-25T11:10:06;6.50;;;4.40;;
59788;SDS011;47353;51.614;5.530;2024-03-25T11:12:34;8.98;;;5.20;;
59788;SDS011;47353;51.614;5.530;2024-03-25T11:15:01;8.15;;;5.18;;
59788;SDS011;47353;51.614;5.530;2024-03-25T11:17:28;8.70;;;5.05;;
59788;SDS011;47353;51.614;5.530;2024-03-25T11:19:54;7.88;;;4.50;;
59788;SDS011;47353;51.614;5.530;2024-03-25T11:22:24;7.30;;;4.68;;
59788;SDS011;47353;51.614;5.530;2024-03-25T11:24:54;7.45;;;3.58;;
59788;SDS011;47353;51.614;5.530;2024-03-25T11:27:25;6.03;;;3.58;;
59788;SDS011;47353;51.614;5.530;2024-03-25T11:29:51;7.88;;;4.55;;
59788;SDS011;47353;51.614;5.530;2024-03-25T11:32:17;7.18;;;3.75;;
59788;SDS011;47353;51.614;5.530;2024-03-25T11:34:49;8.05;;;3.88;;
59788;SDS011;47353;51.614;5.530;2024-03-25T11:37:16;7.00;;;4.03;;
59788;SDS011;47353;51.614;5.530;2024-03-25T11:39:41;6.05;;;3.97;;
59788;SDS011;47353;51.614;5.530;2024-03-25T11:42:10;5.38;;;3.22;;
59788;SDS011;47353;51.614;5.530;2024-03-25T11:44:38;6.93;;;3.60;;
59788;SDS011;47353;51.614;5.530;2024-03-25T11:47:05;4.88;;;3.15;;
59788;SDS011;47353;51.614;5.530;2024-03-25T11:49:36;7.40;;;4.10;;
59788;SDS011;47353;51.614;5.530;2024-03-25T11:52:05;5.47;;;3.20;;
59788;SDS011;47353;51.614;5.530;2024-03-25T11:54:31;4.68;;;2.80;;
59788;SDS011;47353;51.614;5.530;2024-03-25T11:56:57;5.63;;;3.05;;
59788;SDS011;47353;51.614;5.530;2024-03-25T11:59:22;5.28;;;3.05;;
59788;SDS011;47353;51.614;5.530;2024-03-25T12:01:49;5.82;;;3.22;;
59788;SDS011;47353;51.614;5.530;2024-03-25T12:04:16;5.78;;;2.92;;
59788;SDS011;47353;51.614;5.530;2024-03-25T12:06:43;11.13;;;4.03;;
59788;SDS011;47353;51.614;5.530;2024-03-25T12:09:10;8.30;;;4.03;;
59788;SDS011;47353;51.614;5.530;2024-03-25T12:11:55;7.07;;;3.90;;
59788;SDS011;47353;51.614;5.530;2024-03-25T12:14:21;7.38;;;4.35;;
59788;SDS011;47353;51.614;5.530;2024-03-25T12:16:48;7.47;;;3.78;;
59788;SDS011;47353;51.614;5.530;2024-03-25T12:19:15;6.78;;;3.72;;
59788;SDS011;47353;51.614;5.530;2024-03-25T12:21:41;5.60;;;3.42;;
59788;SDS011;47353;51.614;5.530;2024-03-25T12:24:07;5.93;;;3.60;;
59788;SDS011;47353;51.614;5.530;2024-03-25T12:26:34;7.80;;;3.42;;
59788;SDS011;47353;51.614;5.530;2024-03-25T12:28:59;7.28;;;4.10;;
59788;SDS011;47353;51.614;5.530;2024-03-25T12:31:25;7.57;;;4.22;;
59788;SDS011;47353;51.614;5.530;2024-03-25T12:33:50;7.10;;;4.30;;
59788;SDS011;47353;51.614;5.530;2024-03-25T12:36:16;4.43;;;3.10;;
59788;SDS011;47353;51.614;5.530;2024-03-25T12:38:41;6.70;;;3.65;;
59788;SDS011;47353;51.614;5.530;2024-03-25T12:41:08;5.30;;;3.35;;
59788;SDS011;47353;51.614;5.530;2024-03-25T12:43:43;5.57;;;3.28;;
59788;SDS011;47353;51.614;5.530;2024-03-25T12:46:10;6.77;;;3.10;;
59788;SDS011;47353;51.614;5.530;2024-03-25T12:48:38;6.07;;;3.13;;
59788;SDS011;47353;51.614;5.530;2024-03-25T12:51:05;5.35;;;3.50;;
59788;SDS011;47353;51.614;5.530;2024-03-25T12:53:31;4.70;;;3.55;;
59788;SDS011;47353;51.614;5.530;2024-03-25T12:55:56;6.07;;;3.92;;
59788;SDS011;47353;51.614;5.530;2024-03-25T12:58:22;6.28;;;3.65;;
59788;SDS011;47353;51.614;5.530;2024-03-25T13:00:47;7.63;;;2.90;;
59788;SDS011;47353;51.614;5.530;2024-03-25T13:03:13;5.78;;;3.28;;
59788;SDS011;47353;51.614;5.530;2024-03-25T13:05:39;5.82;;;3.03;;
59788;SDS011;47353;51.614;5.530;2024-03-25T13:08:05;5.05;;;2.72;;
59788;SDS011;47353;51.614;5.530;2024-03-25T13:10:31;5.15;;;2.92;;
59788;SDS011;47353;51.614;5.530;2024-03-25T13:12:56;4.60;;;2.92;;
59788;SDS011;47353;51.614;5.530;2024-03-25T13:15:22;5.82;;;3.53;;
59788;SDS011;47353;51.614;5.530;2024-03-25T13:17:48;6.47;;;3.55;;
59788;SDS011;47353;51.614;5.530;2024-03-25T13:20:13;4.65;;;3.03;;
59788;SDS011;47353;51.614;5.530;2024-03-25T13:22:39;4.18;;;2.60;;
59788;SDS011;47353;51.614;5.530;2024-03-25T13:25:05;5.05;;;2.92;;
59788;SDS011;47353;51.614;5.530;2024-03-25T13:27:31;5.30;;;3.22;;
59788;SDS011;47353;51.614;5.530;2024-03-25T13:29:57;4.13;;;3.22;;
59788;SDS011;47353;51.614;5.530;2024-03-25T13:32:22;6.53;;;3.58;;
59788;SDS011;47353;51.614;5.530;2024-03-25T13:34:51;4.95;;;3.20;;
59788;SDS011;47353;51.614;5.530;2024-03-25T13:37:16;7.45;;;3.53;;
59788;SDS011;47353;51.614;5.530;2024-03-25T13:39:41;4.40;;;2.97;;
59788;SDS011;47353;51.614;5.530;2024-03-25T13:42:07;5.47;;;3.25;;
59788;SDS011;47353;51.614;5.530;2024-03-25T13:44:32;6.07;;;3.20;;
59788;SDS011;47353;51.614;5.530;2024-03-25T13:46:58;5.82;;;3.35;;
59788;SDS011;47353;51.614;5.530;2024-03-25T13:49:23;7.10;;;3.10;;
59788;SDS011;47353;51.614;5.530;2024-03-25T13:51:58;5.07;;;3.20;;
59788;SDS011;47353;51.614;5.530;2024-03-25T13:54:24;4.05;;;2.97;;
59788;SDS011;47353;51.614;5.530;2024-03-25T13:56:51;5.57;;;3.40;;
59788;SDS011;47353;51.614;5.530;2024-03-25T13:59:16;4.93;;;3.00;;
59788;SDS011;47353;51.614;5.530;2024-03-25T14:01:42;5.78;;;3.35;;
59788;SDS011;47353;51.614;5.530;2024-03-25T14:04:07;4.38;;;3.20;;
59788;SDS011;47353;51.614;5.530;2024-03-25T14:06:33;4.28;;;2.80;;
59788;SDS011;47353;51.614;5.530;2024-03-25T14:08:58;5.03;;;3.05;;
59788;SDS011;47353;51.614;5.530;2024-03-25T14:11:24;5.20;;;3.17;;
59788;SDS011;47353;51.614;5.530;2024-03-25T14:13:50;4.65;;;2.67;;
59788;SDS011;47353;51.614;5.530;2024-03-25T14:16:15;4.68;;;3.05;;
59788;SDS011;47353;51.614;5.530;2024-03-25T14:18:41;4.13;;;2.50;;
59788;SDS011;47353;51.614;5.530;2024-03-25T14:21:06;5.60;;;3.15;;
59788;SDS011;47353;51.614;5.530;2024-03-25T14:23:32;5.20;;;3.17;;
59788;SDS011;47353;51.614;5.530;2024-03-25T14:25:57;4.15;;;2.67;;
59788;SDS011;47353;51.614;5.530;2024-03-25T14:28:23;6.05;;;3.10;;
59788;SDS011;47353;51.614;5.530;2024-03-25T14:30:48;4.20;;;2.40;;
59788;SDS011;47353;51.614;5.530;2024-03-25T14:33:14;4.50;;;2.72;;